Time;durP1;ratioP1;P1;durP2;ratioP2;P2;SDS_P1;SDS_P2;PMS_P1;PMS_P2;Temp;Humidity;BMP_temperature;BMP_pressure;BME280_temperature;BME280_humidity;BME280_pressure;Samples;Min_cycle;Max_cycle;Signal;HPM_P1;HPM_P2
2023/01/16 00:01:56;;;;;;;3.30;3.00;;;;;;;1.28;100.00;95467.47;4953947;28;101933;-62
2023/01/16 00:04:23;;;;;;;3.90;3.00;;;;;;;1.24;100.00;95466.28;4954472;28;105055;-62
2023/01/16 00:06:50;;;;;;;5.00;3.13;;;;;;;1.26;100.00;95456.41;4954144;28;104109;-62
2023/01/16 00:09:17;;;;;;;3.53;2.97;;;;;;;1.19;100.00;95456.47;4954189;28;101918;-62
2023/01/16 00:11:44;;;;;;;4.00;3.30;;;;;;;1.31;100.00;95448.72;4953781;28;105021;-62
2023/01/16 00:14:11;;;;;;;3.50;3.20;;;;;;;1.39;100.00;95448.41;4953753;28;105542;-62
2023/01/16 00:16:40;;;;;;;3.70;3.10;;;;;;;1.24;100.00;95440.91;4954223;28;102245;-62
2023/01/16 00:19:06;;;;;;;4.33;3.37;;;;;;;1.29;100.00;95445.50;4957120;28;104102;-62
2023/01/16 00:21:33;;;;;;;3.40;3.07;;;;;;;1.34;100.00;95443.03;4971720;28;102558;-62
2023/01/16 00:24:01;;;;;;;4.17;3.00;;;;;;;1.33;100.00;95433.56;4953676;28;105048;-62
2023/01/16 00:26:29;;;;;;;4.97;3.10;;;;;;;1.34;100.00;95424.69;4953338;28;105016;-62
2023/01/16 00:28:56;;;;;;;3.73;2.83;;;;;;;1.35;100.00;95418.44;4953876;28;101875;-62
2023/01/16 00:31:24;;;;;;;3.20;2.90;;;;;;;1.37;100.00;95411.97;4954073;28;105509;-62
2023/01/16 00:33:53;;;;;;;3.83;3.07;;;;;;;1.37;100.00;95398.88;4970882;28;102569;-62
2023/01/16 00:36:20;;;;;;;4.47;3.13;;;;;;;1.38;100.00;95391.81;4953500;28;101856;-62
2023/01/16 00:38:47;;;;;;;3.10;2.60;;;;;;;1.27;100.00;95397.78;4956292;28;104755;-62
2023/01/16 00:41:15;;;;;;;4.23;3.47;;;;;;;1.19;100.00;95395.44;4954018;28;101745;-62
2023/01/16 00:43:42;;;;;;;3.60;3.20;;;;;;;1.29;100.00;95390.50;4953850;28;105378;-62
2023/01/16 00:46:10;;;;;;;3.73;2.97;;;;;;;1.29;100.00;95395.75;4952601;28;105438;-62
2023/01/16 00:48:36;;;;;;;3.40;2.93;;;;;;;1.25;100.00;95395.38;4953784;28;101945;-62
2023/01/16 00:51:05;;;;;;;3.33;3.00;;;;;;;1.23;100.00;95397.41;4953924;28;104697;-62
2023/01/16 00:53:33;;;;;;;4.77;3.50;;;;;;;1.22;100.00;95384.53;4952668;28;105163;-62
2023/01/16 00:56:00;;;;;;;3.63;3.27;;;;;;;1.15;100.00;95387.22;4971437;28;101764;-62
2023/01/16 00:58:26;;;;;;;3.60;3.30;;;;;;;1.08;100.00;95378.63;4953822;28;106053;-62
2023/01/16 01:00:54;;;;;;;3.03;2.80;;;;;;;0.94;100.00;95382.38;4956278;28;105273;-62
2023/01/16 01:03:20;;;;;;;6.50;3.03;;;;;;;0.63;100.00;95371.19;4953750;28;104817;-62
2023/01/16 01:05:48;;;;;;;4.10;3.17;;;;;;;0.71;100.00;95371.72;4952980;28;105382;-62
2023/01/16 01:08:17;;;;;;;3.27;2.93;;;;;;;0.65;100.00;95363.91;4953766;28;101855;-62
2023/01/16 01:10:44;;;;;;;3.20;2.90;;;;;;;0.62;100.00;95370.38;4953523;28;104883;-62
2023/01/16 01:13:11;;;;;;;3.90;3.53;;;;;;;0.74;100.00;95370.50;4953107;28;104117;-62
2023/01/16 01:15:38;;;;;;;4.23;3.83;;;;;;;0.77;100.00;95368.25;4953547;28;101924;-62
2023/01/16 01:18:06;;;;;;;3.60;3.30;;;;;;;0.79;100.00;95362.81;4953040;28;106188;-62
2023/01/16 01:20:33;;;;;;;3.93;3.23;;;;;;;0.74;100.00;95358.22;4952692;28;105075;-62
2023/01/16 01:23:01;;;;;;;5.17;3.87;;;;;;;0.65;100.00;95356.06;4956301;28;102240;-62
2023/01/16 01:25:29;;;;;;;5.20;3.20;;;;;;;0.65;100.00;95353.47;4952556;28;105032;-62
2023/01/16 01:27:56;;;;;;;4.47;3.40;;;;;;;0.69;100.00;95350.22;4953271;28;102261;-62
2023/01/16 01:30:23;;;;;;;3.20;2.90;;;;;;;0.65;100.00;95340.38;4953185;28;105183;-62
2023/01/16 01:32:50;;;;;;;4.07;3.40;;;;;;;0.70;100.00;95341.34;4952662;28;104878;-62
2023/01/16 01:35:19;;;;;;;3.27;2.97;;;;;;;0.39;100.00;95351.06;4952747;28;101900;-62
2023/01/16 01:37:46;;;;;;;3.07;2.77;;;;;;;0.05;100.00;95341.84;4952930;28;105496;-62
2023/01/16 01:40:13;;;;;;;3.50;3.17;;;;;;;0.09;100.00;95332.59;4952105;28;105029;-62
2023/01/16 01:42:51;;;;;;;3.43;2.80;;;;;;;0.25;100.00;95333.88;4953045;28;101879;-62
2023/01/16 01:45:21;;;;;;;3.73;3.10;;;;;;;0.33;100.00;95326.56;4974066;28;101752;-62
2023/01/16 01:47:55;;;;;;;4.07;2.97;;;;;;;0.36;100.00;95323.53;4953461;28;102030;-62
2023/01/16 01:50:35;;;;;;;3.10;2.90;;;;;;;0.44;100.00;95310.19;4953168;28;104804;-62
2023/01/16 01:53:07;;;;;;;3.93;3.10;;;;;;;0.46;100.00;95307.38;4969435;28;102993;-62
2023/01/16 01:55:34;;;;;;;4.20;3.10;;;;;;;0.30;100.00;95297.44;4971073;28;101743;-62
2023/01/16 01:58:05;;;;;;;3.23;2.93;;;;;;;0.30;100.00;95297.44;4973277;28;102429;-62
2023/01/16 02:00:32;;;;;;;3.17;2.87;;;;;;;0.34;100.00;95299.41;4955408;28;103878;-62
2023/01/16 02:03:08;;;;;;;3.47;3.17;;;;;;;0.32;100.00;95292.78;4974026;28;101845;-62
2023/01/16 02:05:44;;;;;;;3.30;3.00;;;;;;;0.33;100.00;95289.19;4956115;28;103799;-62
2023/01/16 02:08:14;;;;;;;3.83;2.93;;;;;;;0.41;100.00;95281.06;4977227;28;102728;-62
2023/01/16 02:10:46;;;;;;;3.07;2.77;;;;;;;0.44;100.00;95278.81;4955933;28;105708;-62
2023/01/16 02:13:15;;;;;;;3.83;3.17;;;;;;;0.41;100.00;95275.81;4955370;28;105392;-62
2023/01/16 02:21:28;;;;;;;3.50;3.10;;;;;;;0.16;100.00;95251.50;4973473;28;102632;-62
2023/01/16 02:24:28;;;;;;;4.03;3.00;;;;;;;0.02;100.00;95253.41;4955944;28;102011;-62
2023/01/16 02:27:19;;;;;;;2.40;2.20;;;;;;;0.00;100.00;95241.59;4955503;28;105225;-62
2023/01/16 02:30:16;;;;;;;2.83;2.40;;;;;;;0.04;100.00;95232.31;4955756;28;105578;-62
2023/01/16 02:32:57;;;;;;;3.13;2.83;;;;;;;0.01;100.00;95228.31;4926977;28;101970;-62
2023/01/16 02:35:42;;;;;;;2.93;2.63;;;;;;;0.13;100.00;95215.34;4973570;28;103033;-62
2023/01/16 02:38:17;;;;;;;4.27;2.60;;;;;;;0.11;100.00;95207.72;4955881;28;101875;-62
2023/01/16 02:40:54;;;;;;;2.90;2.60;;;;;;;0.14;100.00;95201.25;4973645;28;102494;-62
2023/01/16 02:43:33;;;;;;;2.67;2.43;;;;;;;0.05;100.00;95192.09;4954772;28;103942;-62
2023/01/16 02:46:10;;;;;;;2.87;2.67;;;;;;;0.06;100.00;95185.88;4955237;28;101914;-62
2023/01/16 02:48:46;;;;;;;3.47;2.87;;;;;;;0.03;100.00;95181.06;4973938;28;101756;-62
2023/01/16 02:51:24;;;;;;;4.00;2.43;;;;;;;0.05;100.00;95181.63;4972122;28;102482;-62
2023/01/16 02:53:59;;;;;;;2.40;2.20;;;;;;;0.10;100.00;95173.94;4959632;28;101907;-62
2023/01/16 02:56:35;;;;;;;2.77;2.10;;;;;;;0.06;100.00;95167.59;4954761;28;104583;-62
2023/01/16 02:59:02;;;;;;;3.07;2.70;;;;;;;0.02;100.00;95167.19;4940302;28;101949;-62
2023/01/16 03:01:29;;;;;;;2.60;2.30;;;;;;;-0.01;100.00;95164.22;4955984;28;105124;-62
2023/01/16 03:04:06;;;;;;;3.07;2.40;;;;;;;0.04;100.00;95157.34;4955196;28;104751;-62
2023/01/16 03:06:44;;;;;;;2.40;2.20;;;;;;;-0.02;100.00;95149.56;4955351;28;102118;-62
2023/01/16 03:09:35;;;;;;;2.57;2.37;;;;;;;-0.05;100.00;95147.38;4972706;28;102338;-62
2023/01/16 03:12:17;;;;;;;2.70;2.50;;;;;;;-0.03;100.00;95142.72;4955054;28;105872;-62
2023/01/16 03:14:52;;;;;;;2.20;2.00;;;;;;;0.03;100.00;95137.44;4955145;28;101842;-62
2023/01/16 03:17:37;;;;;;;2.03;1.87;;;;;;;-0.27;100.00;95133.91;4958093;28;105520;-62
2023/01/16 03:20:23;;;;;;;2.93;1.90;;;;;;;-0.60;100.00;95135.16;4956254;28;102583;-62
2023/01/16 03:22:56;;;;;;;1.57;1.47;;;;;;;-0.65;100.00;95126.38;4955794;28;103809;-62
2023/01/16 03:25:29;;;;;;;1.70;1.60;;;;;;;-0.54;100.00;95123.09;4972635;28;103279;-62
2023/01/16 03:28:08;;;;;;;1.70;1.60;;;;;;;-0.40;100.00;95109.72;4955311;28;101876;-62
2023/01/16 03:30:46;;;;;;;1.70;1.60;;;;;;;-0.35;100.00;95107.25;4955556;28;105770;-62
2023/01/16 03:33:24;;;;;;;2.20;1.37;;;;;;;-0.33;100.00;95099.22;4972466;28;103315;-62
2023/01/16 03:35:57;;;;;;;1.63;1.50;;;;;;;-0.29;100.00;95087.34;4954429;28;102568;-62
2023/01/16 03:38:26;;;;;;;2.97;1.60;;;;;;;-0.22;100.00;95086.22;4972405;28;103378;-62
2023/01/16 03:41:00;;;;;;;1.57;1.47;;;;;;;-0.21;100.00;95087.84;4957705;28;105427;-62
2023/01/16 03:43:32;;;;;;;1.93;1.80;;;;;;;-0.49;100.00;95074.47;4972982;28;102341;-62
2023/01/16 03:46:05;;;;;;;1.80;1.70;;;;;;;-0.53;100.00;95080.31;4954451;28;105255;-62
2023/01/16 03:48:38;;;;;;;2.00;1.80;;;;;;;-0.56;100.00;95070.31;4955008;28;101968;-62
2023/01/16 03:51:09;;;;;;;1.67;1.57;;;;;;;-0.40;100.00;95065.31;4955147;28;105014;-62
2023/01/16 03:53:43;;;;;;;1.60;1.50;;;;;;;-0.35;100.00;95055.03;4953900;28;105384;-62
2023/01/16 03:56:16;;;;;;;2.43;1.90;;;;;;;-0.37;100.00;95042.19;4954668;28;101875;-62
2023/01/16 03:58:47;;;;;;;2.00;1.80;;;;;;;-0.30;100.00;95044.75;4955559;28;105069;-62
2023/01/16 04:01:21;;;;;;;1.70;1.60;;;;;;;-0.45;100.00;95030.44;4954463;28;105058;-62
2023/01/16 04:03:59;;;;;;;1.50;1.40;;;;;;;-0.55;100.00;95025.69;4958439;28;101874;-62
2023/01/16 04:06:36;;;;;;;1.70;1.60;;;;;;;-0.63;100.00;95018.16;4971803;28;102759;-62
2023/01/16 04:09:10;;;;;;;1.60;1.50;;;;;;;-0.50;100.00;95012.78;4954871;28;101785;-62
2023/01/16 04:11:41;;;;;;;1.70;1.60;;;;;;;-0.44;100.00;95006.69;4953591;28;102608;-62
2023/01/16 04:14:10;;;;;;;1.73;1.60;;;;;;;-0.56;100.00;95000.59;4954073;28;106225;-62
2023/01/16 04:16:39;;;;;;;2.10;1.70;;;;;;;-0.62;100.00;94990.25;4954381;28;101836;-62
2023/01/16 04:19:07;;;;;;;2.80;1.70;;;;;;;-0.60;100.00;94994.22;4953465;28;104046;-62
2023/01/16 04:21:36;;;;;;;1.80;1.70;;;;;;;-0.51;100.00;94982.47;4952921;28;104043;-62
2023/01/16 04:24:03;;;;;;;1.70;1.60;;;;;;;-0.61;100.00;94963.91;4953875;28;101881;-62
2023/01/16 04:26:30;;;;;;;1.60;1.50;;;;;;;-0.71;100.00;94955.00;4957067;28;104265;-62
2023/01/16 04:28:57;;;;;;;1.60;1.43;;;;;;;-0.65;100.00;94948.91;4954405;28;101885;-62
2023/01/16 04:31:28;;;;;;;2.13;1.93;;;;;;;-0.58;100.00;94942.59;4954400;28;104877;-62
2023/01/16 04:33:55;;;;;;;1.70;1.60;;;;;;;-0.49;100.00;94936.09;4971556;28;102985;-62
2023/01/16 04:36:23;;;;;;;1.70;1.60;;;;;;;-0.48;100.00;94935.06;4953284;28;104393;-62
2023/01/16 04:38:51;;;;;;;2.83;1.47;;;;;;;-0.57;100.00;94938.16;4954442;28;105442;-62
2023/01/16 04:41:35;;;;;;;1.70;1.60;;;;;;;-0.72;100.00;94943.75;4953665;28;103993;-62
2023/01/16 04:44:03;;;;;;;1.90;1.80;;;;;;;-0.84;100.00;94940.25;4953977;28;101805;-62
2023/01/16 04:46:29;;;;;;;2.03;1.90;;;;;;;-0.78;100.00;94928.94;4954492;28;104901;-62
2023/01/16 04:48:57;;;;;;;1.53;1.43;;;;;;;-0.86;100.00;94931.03;4940567;28;101895;-62
2023/01/16 04:51:25;;;;;;;2.10;1.60;;;;;;;-0.82;100.00;94917.34;4953149;28;106277;-62
2023/01/16 04:53:53;;;;;;;1.50;1.40;;;;;;;-0.81;100.00;94912.94;4953477;28;105341;-62
2023/01/16 04:56:21;;;;;;;1.47;1.37;;;;;;;-0.77;100.00;94914.09;4954060;28;101844;-62
2023/01/16 04:58:53;;;;;;;2.03;1.60;;;;;;;-0.75;100.00;94905.06;4955069;28;105078;-62
2023/01/16 05:01:21;;;;;;;1.53;1.43;;;;;;;-0.93;100.00;94896.41;4957222;28;102956;-62
2023/01/16 05:03:49;;;;;;;1.87;1.60;;;;;;;-1.05;100.00;94890.31;4955436;28;101923;-62
2023/01/16 05:06:17;;;;;;;1.47;1.37;;;;;;;-0.93;100.00;94883.38;4954493;28;104847;-62
2023/01/16 05:08:44;;;;;;;1.70;1.60;;;;;;;-1.09;100.00;94878.69;4956673;28;105285;-62
2023/01/16 05:11:13;;;;;;;1.40;1.30;;;;;;;-1.19;100.00;94875.78;4971213;28;102882;-62
2023/01/16 05:13:41;;;;;;;2.10;1.60;;;;;;;-1.25;100.00;94864.41;4970697;28;102816;-62
2023/01/16 05:16:08;;;;;;;1.50;1.40;;;;;;;-1.16;100.00;94857.91;4953977;28;102485;-62
2023/01/16 05:18:35;;;;;;;1.63;1.53;;;;;;;-1.14;100.00;94857.69;4953326;28;105837;-62
2023/01/16 05:21:04;;;;;;;1.60;1.50;;;;;;;-1.13;100.00;94857.47;4952531;28;105008;-62
2023/01/16 05:23:33;;;;;;;2.10;1.90;;;;;;;-1.20;100.00;94846.28;4970792;28;101830;-62
2023/01/16 05:25:59;;;;;;;2.13;1.80;;;;;;;-1.20;100.00;94846.28;4936976;28;105293;-62
2023/01/16 05:28:28;;;;;;;1.43;1.40;;;;;;;-1.33;100.00;94840.41;4970475;28;102770;-62
2023/01/16 05:30:55;;;;;;;1.57;1.47;;;;;;;-1.41;100.00;94841.50;4973486;28;101819;-62
2023/01/16 05:33:22;;;;;;;1.50;1.40;;;;;;;-1.41;100.00;94838.91;4952089;28;105888;-62
2023/01/16 05:35:50;;;;;;;1.33;1.23;;;;;;;-1.45;100.00;94827.31;4952560;28;102197;-62
2023/01/16 05:38:18;;;;;;;1.77;1.67;;;;;;;-1.33;100.00;94820.34;4952683;28;104790;-62
2023/01/16 05:40:45;;;;;;;2.50;2.30;;;;;;;-1.34;100.00;94818.78;4935257;28;104959;-62
2023/01/16 05:43:12;;;;;;;4.67;1.83;;;;;;;-1.38;100.00;94816.81;4952420;28;101859;-62
2023/01/16 05:45:40;;;;;;;1.93;1.83;;;;;;;-1.31;100.00;94807.91;4952190;28;104257;-62
2023/01/16 05:48:07;;;;;;;1.73;1.63;;;;;;;-1.26;100.00;94792.41;4951682;28;105797;-62
2023/01/16 05:50:33;;;;;;;8.57;5.50;;;;;;;-1.23;100.00;94776.34;4952370;28;101860;-62
2023/01/16 05:53:01;;;;;;;7.57;5.30;;;;;;;-1.17;100.00;94769.44;4955104;28;104894;-62
2023/01/16 05:55:28;;;;;;;5.10;4.20;;;;;;;-1.24;100.00;94756.50;4952109;28;101955;-62
2023/01/16 05:57:55;;;;;;;4.37;3.40;;;;;;;-1.37;100.00;94746.19;4951986;28;105070;-62
2023/01/16 06:00:22;;;;;;;5.27;4.60;;;;;;;-1.43;100.00;94738.47;4951534;28;105902;-62
2023/01/16 06:02:50;;;;;;;5.97;5.37;;;;;;;-1.62;100.00;94729.84;4952389;28;102111;-62
2023/01/16 06:05:17;;;;;;;6.77;5.40;;;;;;;-1.66;100.00;94723.47;4951902;28;105264;-62
2023/01/16 06:07:44;;;;;;;4.00;2.70;;;;;;;-1.69;100.00;94716.06;4951509;28;105105;-61
2023/01/16 06:10:12;;;;;;;4.40;2.60;;;;;;;-1.86;100.00;94707.22;4952043;28;101961;-61
2023/01/16 06:12:39;;;;;;;2.30;2.10;;;;;;;-1.93;100.00;94714.31;4952193;28;104809;-61
2023/01/16 06:15:07;;;;;;;2.80;2.40;;;;;;;-1.92;100.00;94713.28;4954504;28;105170;-61
2023/01/16 06:17:34;;;;;;;2.40;2.20;;;;;;;-1.79;100.00;94707.16;4951919;28;105150;-61
2023/01/16 06:20:02;;;;;;;2.20;2.00;;;;;;;-1.73;100.00;94707.09;4951255;28;105604;-61
2023/01/16 06:22:29;;;;;;;2.43;1.97;;;;;;;-1.66;100.00;94700.00;4951971;28;102698;-61
2023/01/16 06:24:56;;;;;;;2.13;1.93;;;;;;;-1.72;100.00;94700.06;4951694;28;103673;-61
2023/01/16 06:27:23;;;;;;;3.40;2.60;;;;;;;-1.69;100.00;94694.44;4968669;28;102700;-61
2023/01/16 06:29:50;;;;;;;5.93;3.17;;;;;;;-1.62;100.00;94685.53;4951629;28;101934;-61
2023/01/16 06:32:17;;;;;;;4.97;3.00;;;;;;;-1.65;100.00;94685.97;4951920;28;104908;-61
2023/01/16 06:34:44;;;;;;;5.10;3.30;;;;;;;-1.72;100.00;94668.81;4951128;28;105627;-62
2023/01/16 06:37:13;;;;;;;4.50;3.23;;;;;;;-1.78;100.00;94667.88;4951121;28;102005;-61
2023/01/16 06:39:39;;;;;;;4.03;2.80;;;;;;;-1.74;100.00;94666.44;4932849;28;105015;-61
2023/01/16 06:42:07;;;;;;;4.53;3.07;;;;;;;-1.64;100.00;94655.50;4928997;28;101904;-61
2023/01/16 06:44:34;;;;;;;4.13;3.70;;;;;;;-1.63;100.00;94644.88;4931777;28;105127;-61
2023/01/16 06:47:02;;;;;;;6.00;4.33;;;;;;;-1.55;100.00;94639.34;4931510;28;105749;-61
2023/01/16 06:49:29;;;;;;;4.90;4.40;;;;;;;-1.56;100.00;94631.75;4932064;28;101899;-61
2023/01/16 06:51:56;;;;;;;7.43;5.00;;;;;;;-1.66;100.00;94632.28;4932066;28;105004;-61
2023/01/16 06:54:24;;;;;;;5.27;4.77;;;;;;;-1.61;100.00;94624.59;4931164;28;105761;-61
2023/01/16 06:56:52;;;;;;;3.07;2.70;;;;;;;-1.61;100.00;94619.38;4936725;28;101858;-61
2023/01/16 06:59:19;;;;;;;4.37;3.37;;;;;;;-1.56;100.00;94622.13;4932970;28;101744;-61
2023/01/16 07:01:46;;;;;;;3.40;3.00;;;;;;;-1.47;100.00;94605.19;4933146;28;101819;-61
2023/01/16 07:04:13;;;;;;;4.13;2.80;;;;;;;-1.26;100.00;94604.69;4931866;28;104717;-61
2023/01/16 07:06:41;;;;;;;4.03;2.87;;;;;;;-1.36;100.00;94596.63;4931179;28;105051;-61
2023/01/16 07:09:07;;;;;;;6.00;3.40;;;;;;;-1.41;100.00;94586.06;4948018;28;101841;-61
2023/01/16 07:11:36;;;;;;;5.97;3.67;;;;;;;-1.48;100.00;94576.75;4931594;28;105567;-61
2023/01/16 07:22:38;;;;;;;2.93;1.80;;;;;;;-1.52;100.00;94546.91;4931568;28;101920;-61
2023/01/16 07:25:09;;;;;;;4.73;2.07;;;;;;;-1.39;100.00;94544.94;4947743;28;105157;-61
2023/01/16 07:27:38;;;;;;;2.20;2.00;;;;;;;-1.47;100.00;94527.00;4932463;28;102721;-61
2023/01/16 07:30:08;;;;;;;2.23;2.00;;;;;;;-1.32;100.00;94523.97;4931691;28;101918;-61
2023/01/16 07:32:35;;;;;;;4.37;2.93;;;;;;;-1.23;100.00;94520.81;4931748;28;105133;-61
2023/01/16 07:35:02;;;;;;;4.83;3.67;;;;;;;-1.33;100.00;94511.94;4930905;28;105343;-61
2023/01/16 07:37:29;;;;;;;4.33;3.13;;;;;;;-1.32;100.00;94497.91;4945956;28;102254;-61
2023/01/16 07:39:56;;;;;;;4.97;3.27;;;;;;;-1.35;100.00;94488.72;4934370;28;105925;-61
2023/01/16 07:42:23;;;;;;;4.97;3.37;;;;;;;-1.18;100.00;94481.84;4953660;28;105234;-61
2023/01/16 07:44:51;;;;;;;4.63;3.10;;;;;;;-1.06;100.00;94466.19;4967290;28;105130;-61
2023/01/16 07:47:18;;;;;;;3.70;2.67;;;;;;;-0.97;100.00;94460.44;4949977;28;105182;-61
2023/01/16 07:49:45;;;;;;;4.20;2.83;;;;;;;-0.88;100.00;94453.06;4967140;28;101956;-61
2023/01/16 07:52:12;;;;;;;2.97;2.67;;;;;;;-0.98;100.00;94448.44;4950330;28;104798;-61
2023/01/16 07:54:41;;;;;;;3.37;2.87;;;;;;;-0.75;100.00;94437.16;4949952;28;105564;-61
2023/01/16 07:57:08;;;;;;;2.90;2.50;;;;;;;-0.78;100.00;94430.59;4950657;28;101871;-61
2023/01/16 07:59:34;;;;;;;4.83;3.10;;;;;;;-0.69;100.00;94431.03;4951869;28;102545;-61
2023/01/16 08:02:03;;;;;;;4.33;3.10;;;;;;;-0.53;100.00;94419.91;4949713;28;104040;-61
2023/01/16 08:04:30;;;;;;;3.77;3.07;;;;;;;-0.48;100.00;94412.97;4953867;28;101873;-61
2023/01/16 08:06:57;;;;;;;3.20;2.90;;;;;;;-0.44;100.00;94406.25;4949629;28;105397;-61
2023/01/16 08:09:24;;;;;;;3.47;2.80;;;;;;;-0.34;100.00;94395.22;4950346;28;102009;-61
2023/01/16 08:11:50;;;;;;;4.30;3.23;;;;;;;-0.29;100.00;94390.13;4950096;28;105108;-61
2023/01/16 08:14:17;;;;;;;8.03;3.20;;;;;;;-0.22;100.00;94375.88;4949659;28;105473;-61
2023/01/16 08:16:44;;;;;;;4.03;3.20;;;;;;;0.02;100.00;94366.94;4951946;28;101690;-61
2023/01/16 08:19:12;;;;;;;3.57;3.27;;;;;;;0.20;100.00;94371.94;4950077;28;105065;-61
2023/01/16 08:21:39;;;;;;;5.37;3.60;;;;;;;0.27;100.00;94359.50;4949521;28;103069;-61
2023/01/16 08:24:06;;;;;;;3.60;3.10;;;;;;;0.52;100.00;94347.66;4949956;28;101864;-61
2023/01/16 08:26:34;;;;;;;4.70;3.60;;;;;;;0.60;100.00;94331.56;4952958;28;104838;-61
2023/01/16 08:29:02;;;;;;;3.73;3.30;;;;;;;0.52;100.00;94328.56;4949970;28;102359;-61
2023/01/16 08:31:29;;;;;;;3.93;3.53;;;;;;;0.69;100.00;94324.09;4950069;28;103736;-61
2023/01/16 08:33:57;;;;;;;6.60;4.17;;;;;;;0.93;100.00;94328.13;4949445;28;105819;-61
2023/01/16 08:36:25;;;;;;;3.90;3.60;;;;;;;0.91;100.00;94315.28;4949818;28;101787;-61
2023/01/16 08:38:52;;;;;;;4.77;3.57;;;;;;;1.18;100.00;94310.91;4949954;28;105036;-61
2023/01/16 08:52:29;;;;;;;4.17;2.23;;;;;;;1.95;100.00;94274.81;4951469;28;102776;-61
2023/01/16 08:54:57;;;;;;;2.00;1.90;;;;;;;2.30;100.00;94275.13;4950041;28;102695;-61
2023/01/16 08:57:24;;;;;;;1.80;1.70;;;;;;;2.40;100.00;94262.09;4951165;28;101793;-61
2023/01/16 08:59:51;;;;;;;3.70;2.00;;;;;;;2.50;100.00;94259.53;4951324;28;102752;-61
2023/01/16 09:02:19;;;;;;;2.33;1.80;;;;;;;2.73;100.00;94253.94;4950255;28;102763;-61
2023/01/16 09:04:45;;;;;;;2.07;1.87;;;;;;;2.83;100.00;94253.97;4949645;28;101793;-61
2023/01/16 09:07:13;;;;;;;1.97;1.80;;;;;;;2.92;100.00;94244.56;4948917;28;103772;-61
2023/01/16 09:09:41;;;;;;;1.63;1.53;;;;;;;2.88;100.00;94248.75;4952146;28;102710;-61
2023/01/16 09:14:56;;;;;;;2.30;1.50;;;;;;;3.10;100.00;94241.50;4949044;28;104161;-61
2023/01/16 09:17:24;;;;;;;1.67;1.57;;;;;;;3.34;100.00;94237.41;4949202;28;101989;-61
2023/01/16 09:19:51;;;;;;;1.60;1.50;;;;;;;3.47;100.00;94227.22;4949585;28;103474;-60
2023/01/16 09:22:18;;;;;;;2.33;1.90;;;;;;;3.56;100.00;94214.34;4948350;28;104205;-61
2023/01/16 09:24:46;;;;;;;1.60;1.50;;;;;;;3.65;100.00;94208.31;4950871;28;101686;-61
2023/01/16 09:27:14;;;;;;;1.90;1.40;;;;;;;3.89;100.00;94206.78;4950708;28;102996;-60
2023/01/16 09:29:41;;;;;;;2.43;1.50;;;;;;;3.98;100.00;94201.81;4948665;28;103908;-61
2023/01/16 09:32:09;;;;;;;1.90;1.70;;;;;;;4.05;100.00;94199.69;4954034;28;101702;-61
2023/01/16 09:34:36;;;;;;;1.93;1.73;;;;;;;4.15;100.00;94197.84;4948725;28;105838;-61
2023/01/16 09:37:04;;;;;;;1.90;1.70;;;;;;;4.29;100.00;94188.38;4951514;28;101952;-61
2023/01/16 09:39:31;;;;;;;2.00;1.80;;;;;;;4.36;100.00;94182.84;4952413;28;103922;-61
2023/01/16 09:45:17;;;;;;;1.53;1.43;;;;;;;4.68;100.00;94164.88;4969898;28;101891;-63
2023/01/16 09:47:50;;;;;;;1.77;1.67;;;;;;;4.77;100.00;94161.44;4968681;28;102548;-63
2023/01/16 09:50:21;;;;;;;2.10;1.63;;;;;;;4.94;100.00;94147.94;4951158;28;106015;-63
2023/01/16 09:58:38;;;;;;;2.50;1.83;;;;;;;5.27;100.00;94119.06;4951693;28;102289;-63
2023/01/16 10:01:10;;;;;;;2.50;1.43;;;;;;;5.42;100.00;94111.09;4968840;28;102557;-63
2023/01/16 10:03:42;;;;;;;2.47;1.30;;;;;;;5.56;100.00;94113.91;4968030;28;102685;-63
2023/01/16 10:06:21;;;;;;;1.10;1.00;;;;;;;5.69;100.00;94102.72;4967847;28;102722;-63
2023/01/16 10:09:02;;;;;;;2.00;1.30;;;;;;;5.86;100.00;94088.13;4967969;28;102421;-62
2023/01/16 10:11:37;;;;;;;1.10;1.10;;;;;;;6.01;100.00;94074.00;4968795;28;103003;-62
2023/01/16 10:14:30;;;;;;;1.00;1.00;;;;;;;6.04;100.00;94062.88;4969515;28;101706;-62
2023/01/16 10:17:11;;;;;;;0.70;0.70;;;;;;;6.21;100.00;94056.13;4951462;28;103637;-63
2023/01/16 10:19:57;;;;;;;0.70;0.70;;;;;;;6.31;100.00;94052.59;4957455;28;105049;-63
2023/01/16 10:22:38;;;;;;;1.90;0.90;;;;;;;6.37;100.00;94036.41;4955136;28;103607;-63
2023/01/16 10:25:19;;;;;;;0.93;0.73;;;;;;;6.61;100.00;94031.91;4971818;28;102657;-62
2023/01/16 10:27:59;;;;;;;0.77;0.77;;;;;;;6.70;100.00;94027.56;4971214;28;101920;-62
2023/01/16 10:30:33;;;;;;;0.97;0.87;;;;;;;6.69;100.00;94012.00;4954928;28;103613;-63
2023/01/16 10:33:06;;;;;;;0.90;0.90;;;;;;;6.79;100.00;94006.59;4954022;28;105847;-62
2023/01/16 10:35:38;;;;;;;0.80;0.80;;;;;;;6.86;100.00;93993.81;4971567;28;102234;-62
2023/01/16 10:38:23;;;;;;;0.70;0.70;;;;;;;7.12;100.00;93984.47;4970993;28;102860;-62
2023/01/16 10:40:52;;;;;;;0.80;0.77;;;;;;;7.05;100.00;93979.56;4952328;28;103642;-63
2023/01/16 10:51:49;;;;;;;0.73;0.70;;;;;;;7.24;100.00;93950.47;4953166;28;105243;-63
2023/01/16 10:54:17;;;;;;;0.80;0.80;;;;;;;7.31;100.00;93940.31;4969737;28;102664;-63
2023/01/16 10:56:44;;;;;;;2.20;1.00;;;;;;;7.34;100.00;93929.94;4951590;28;102840;-63
2023/01/16 10:59:13;;;;;;;0.80;0.80;;;;;;;7.47;100.00;93920.50;4954272;28;105084;-63
2023/01/16 11:01:43;;;;;;;0.90;0.90;;;;;;;7.56;100.00;93910.81;4952971;28;105064;-63
2023/01/16 11:04:12;;;;;;;0.73;0.70;;;;;;;7.38;100.00;93895.78;4970020;28;102664;-63
2023/01/16 11:06:41;;;;;;;1.17;0.63;;;;;;;7.36;100.00;93882.84;4937187;28;105129;-63
2023/01/16 11:09:19;;;;;;;1.13;0.80;;;;;;;7.22;100.00;93874.13;4934558;28;101912;-63
2023/01/16 11:20:17;;;;;;;4.03;3.70;;;;;;;7.65;100.00;93835.00;4952169;28;105324;-63
2023/01/16 11:22:49;;;;;;;17.60;13.63;;;;;;;7.80;100.00;93826.78;4952346;28;105282;-63
2023/01/16 11:25:20;;;;;;;10.93;9.23;;;;;;;7.99;100.00;93822.16;4952082;28;102041;-63
2023/01/16 11:27:50;;;;;;;1.80;1.70;;;;;;;7.89;100.00;93812.56;4956640;28;105238;-63
2023/01/16 11:30:21;;;;;;;3.77;2.70;;;;;;;7.79;100.00;93799.53;4952300;28;103131;-63
2023/01/16 11:32:57;;;;;;;3.57;3.10;;;;;;;7.95;100.00;93797.38;4970910;28;102599;-63
2023/01/16 11:35:32;;;;;;;1.47;1.30;;;;;;;7.98;100.00;93783.56;4952108;28;105413;-63
2023/01/16 11:38:02;;;;;;;1.13;0.90;;;;;;;7.90;100.00;93785.03;4953340;28;102858;-63
2023/01/16 11:40:33;;;;;;;1.67;1.10;;;;;;;8.13;100.00;93767.34;4970050;28;105319;-63
2023/01/16 11:46:07;;;;;;;0.80;0.80;;;;;;;8.33;100.00;93757.13;4953567;28;101866;-63
2023/01/16 11:48:38;;;;;;;0.80;0.80;;;;;;;8.29;100.00;93747.44;4953633;28;105404;-64
2023/01/16 11:51:07;;;;;;;1.27;1.00;;;;;;;8.25;100.00;93739.31;4974160;28;102791;-63
2023/01/16 11:53:36;;;;;;;2.03;1.17;;;;;;;8.44;100.00;93747.06;4953145;28;105582;-63
2023/01/16 11:56:36;;;;;;;1.37;1.00;;;;;;;8.55;100.00;93727.19;4952613;28;105528;-63
2023/01/16 11:59:16;;;;;;;1.17;1.07;;;;;;;8.71;100.00;93726.53;4953447;28;101961;-63
2023/01/16 12:05:53;;;;;;;1.40;1.00;;;;;;;8.79;100.00;93701.19;4952745;28;105802;-63
2023/01/16 12:07:42;;;;;;;1.27;1.20;;;;;;;9.03;100.00;93685.69;4952421;28;102551;-63
2023/01/16 12:10:25;;;;;;;1.30;1.20;;;;;;;9.18;100.00;93667.53;4953163;28;105649;-63
2023/01/16 12:15:57;;;;;;;0.70;0.70;;;;;;;9.60;100.00;93655.47;4956646;28;102470;-63
2023/01/16 12:18:35;;;;;;;0.87;0.70;;;;;;;9.82;83.23;93652.69;4965935;28;105755;-63
2023/01/16 12:21:09;;;;;;;0.60;0.60;;;;;;;10.06;82.59;93645.84;4948138;28;101928;-63
2023/01/16 12:23:55;;;;;;;0.70;0.70;;;;;;;10.47;100.00;93646.09;4933127;28;105480;-63
2023/01/16 12:26:25;;;;;;;0.73;0.73;;;;;;;10.28;100.00;93634.25;4932808;28;105737;-64
2023/01/16 12:29:06;;;;;;;0.80;0.80;;;;;;;10.19;100.00;93628.97;4933602;28;101906;-64
2023/01/16 12:31:51;;;;;;;0.60;0.60;;;;;;;10.38;83.74;93633.94;4934764;28;102349;-63
2023/01/16 12:34:42;;;;;;;0.50;0.50;;;;;;;10.42;62.88;93627.69;4950661;28;103111;-64
2023/01/16 12:37:24;;;;;;;1.47;1.10;;;;;;;10.57;92.65;93615.78;4948696;28;102297;-64
2023/01/16 12:39:59;;;;;;;0.90;0.90;;;;;;;10.36;85.68;93625.53;4953699;28;102351;-64
2023/01/16 12:45:37;;;;;;;0.80;0.50;;;;;;;10.31;57.10;93610.50;4950684;28;102338;-63